Eagle, Alaska
Current Conditions -  °F | °C
As of 9:53 AM on Thursday 30 Oct 2014 (Local Time) from PAEG Reporting Station
Overcast Overcast  
Wind Chill: 16°   Ceiling: 3000
Heat Index: 16°   Visibility: 10mi
Dew Point: 12°   Wind: 0mph
Humidity: 84%   Direction: NA
Pressure: 29.68"   Gusts: NA
Location:  64.78°N, 141.21°W
Report Text: PAEG 301753Z AUTO 00000KT 10SM OVC030 M09/M11 A2968 RMK AO2 SLP068 T10891111 11089 21144 58007 TSNO $
Loading
Personal Weather Stations






























Interactive Weather Map New forecast layout! Learn more

10-Day Weather Forecast

Advertisements
Track Severe Weather on mobile